sensor_id;sensor_type;location;lat;lon;timestamp;P1;durP1;ratioP1;P2;durP2;ratioP2
1320;SDS011;653;51.480;11.992;2023-03-21T00:00:15;13.47;;;10.30;;
1320;SDS011;653;51.480;11.992;2023-03-21T00:02:41;13.47;;;9.80;;
1320;SDS011;653;51.480;11.992;2023-03-21T00:05:07;10.07;;;8.50;;
1320;SDS011;653;51.480;11.992;2023-03-21T00:07:33;10.40;;;7.73;;
1320;SDS011;653;51.480;11.992;2023-03-21T00:09:58;17.17;;;9.73;;
1320;SDS011;653;51.480;11.992;2023-03-21T00:12:24;16.63;;;9.90;;
1320;SDS011;653;51.480;11.992;2023-03-21T00:14:53;10.90;;;8.17;;
1320;SDS011;653;51.480;11.992;2023-03-21T00:17:20;10.87;;;8.40;;
1320;SDS011;653;51.480;11.992;2023-03-21T00:19:46;10.90;;;8.67;;
1320;SDS011;653;51.480;11.992;2023-03-21T00:22:13;11.60;;;8.63;;
1320;SDS011;653;51.480;11.992;2023-03-21T00:24:38;12.00;;;9.27;;
1320;SDS011;653;51.480;11.992;2023-03-21T00:27:05;11.40;;;9.70;;
1320;SDS011;653;51.480;11.992;2023-03-21T00:29:31;11.03;;;7.90;;
1320;SDS011;653;51.480;11.992;2023-03-21T00:31:57;11.93;;;8.70;;
1320;SDS011;653;51.480;11.992;2023-03-21T00:34:22;12.20;;;8.77;;
1320;SDS011;653;51.480;11.992;2023-03-21T00:36:48;8.97;;;8.03;;
1320;SDS011;653;51.480;11.992;2023-03-21T00:39:15;14.87;;;8.47;;
1320;SDS011;653;51.480;11.992;2023-03-21T00:41:40;14.33;;;8.17;;
1320;SDS011;653;51.480;11.992;2023-03-21T00:44:06;13.73;;;8.87;;
1320;SDS011;653;51.480;11.992;2023-03-21T00:46:31;9.50;;;7.90;;
1320;SDS011;653;51.480;11.992;2023-03-21T00:49:00;11.87;;;8.40;;
1320;SDS011;653;51.480;11.992;2023-03-21T00:51:25;9.43;;;8.40;;
1320;SDS011;653;51.480;11.992;2023-03-21T00:53:55;12.80;;;8.87;;
1320;SDS011;653;51.480;11.992;2023-03-21T00:56:21;10.20;;;7.73;;
1320;SDS011;653;51.480;11.992;2023-03-21T00:58:47;10.10;;;7.80;;
1320;SDS011;653;51.480;11.992;2023-03-21T01:01:13;10.60;;;7.80;;
1320;SDS011;653;51.480;11.992;2023-03-21T01:03:39;13.23;;;9.20;;
1320;SDS011;653;51.480;11.992;2023-03-21T01:06:10;12.17;;;7.97;;
1320;SDS011;653;51.480;11.992;2023-03-21T01:08:41;10.60;;;6.83;;
1320;SDS011;653;51.480;11.992;2023-03-21T01:11:09;10.47;;;7.67;;
1320;SDS011;653;51.480;11.992;2023-03-21T01:13:36;10.50;;;7.03;;
1320;SDS011;653;51.480;11.992;2023-03-21T01:16:03;8.77;;;6.87;;
1320;SDS011;653;51.480;11.992;2023-03-21T01:18:30;9.40;;;7.30;;
1320;SDS011;653;51.480;11.992;2023-03-21T01:20:57;10.33;;;6.90;;
1320;SDS011;653;51.480;11.992;2023-03-21T01:23:24;9.20;;;7.10;;
1320;SDS011;653;51.480;11.992;2023-03-21T01:25:52;12.67;;;7.80;;
1320;SDS011;653;51.480;11.992;2023-03-21T01:28:18;9.57;;;7.70;;
1320;SDS011;653;51.480;11.992;2023-03-21T01:30:45;10.33;;;7.20;;
1320;SDS011;653;51.480;11.992;2023-03-21T01:33:11;8.87;;;7.57;;
1320;SDS011;653;51.480;11.992;2023-03-21T01:35:37;8.63;;;7.63;;
1320;SDS011;653;51.480;11.992;2023-03-21T01:38:03;9.87;;;7.20;;
1320;SDS011;653;51.480;11.992;2023-03-21T01:40:28;7.93;;;6.07;;
1320;SDS011;653;51.480;11.992;2023-03-21T01:42:54;10.33;;;6.93;;
1320;SDS011;653;51.480;11.992;2023-03-21T01:48:24;11.23;;;7.60;;
1320;SDS011;653;51.480;11.992;2023-03-21T01:50:51;13.37;;;7.67;;
1320;SDS011;653;51.480;11.992;2023-03-21T01:53:21;13.43;;;6.73;;
1320;SDS011;653;51.480;11.992;2023-03-21T01:55:49;10.43;;;8.10;;
1320;SDS011;653;51.480;11.992;2023-03-21T01:58:15;10.20;;;6.40;;
1320;SDS011;653;51.480;11.992;2023-03-21T02:00:45;9.30;;;7.53;;
1320;SDS011;653;51.480;11.992;2023-03-21T02:03:11;9.20;;;7.17;;
1320;SDS011;653;51.480;11.992;2023-03-21T02:05:51;11.07;;;7.87;;
1320;SDS011;653;51.480;11.992;2023-03-21T02:08:20;8.23;;;6.17;;
1320;SDS011;653;51.480;11.992;2023-03-21T02:10:47;11.73;;;7.77;;
1320;SDS011;653;51.480;11.992;2023-03-21T02:13:13;12.27;;;7.40;;
1320;SDS011;653;51.480;11.992;2023-03-21T02:15:40;10.17;;;6.70;;
1320;SDS011;653;51.480;11.992;2023-03-21T02:18:13;10.10;;;7.57;;
1320;SDS011;653;51.480;11.992;2023-03-21T02:31:50;9.23;;;7.43;;
1320;SDS011;653;51.480;11.992;2023-03-21T02:34:25;8.53;;;6.97;;
1320;SDS011;653;51.480;11.992;2023-03-21T02:37:49;10.07;;;6.97;;
1320;SDS011;653;51.480;11.992;2023-03-21T02:45:22;8.10;;;6.40;;
1320;SDS011;653;51.480;11.992;2023-03-21T02:50:52;7.03;;;6.23;;
1320;SDS011;653;51.480;11.992;2023-03-21T02:53:20;7.27;;;6.00;;
1320;SDS011;653;51.480;11.992;2023-03-21T02:55:48;8.63;;;6.63;;
1320;SDS011;653;51.480;11.992;2023-03-21T02:58:16;9.70;;;6.60;;
1320;SDS011;653;51.480;11.992;2023-03-21T03:00:45;7.87;;;6.50;;
1320;SDS011;653;51.480;11.992;2023-03-21T03:03:11;9.10;;;6.23;;
1320;SDS011;653;51.480;11.992;2023-03-21T03:06:12;11.90;;;8.40;;
1320;SDS011;653;51.480;11.992;2023-03-21T03:09:16;10.37;;;6.60;;
1320;SDS011;653;51.480;11.992;2023-03-21T03:14:03;15.77;;;7.00;;
1320;SDS011;653;51.480;11.992;2023-03-21T03:16:59;10.97;;;6.97;;
1320;SDS011;653;51.480;11.992;2023-03-21T03:19:52;14.03;;;8.20;;
1320;SDS011;653;51.480;11.992;2023-03-21T03:22:29;8.23;;;7.27;;
1320;SDS011;653;51.480;11.992;2023-03-21T03:25:08;7.80;;;6.90;;
1320;SDS011;653;51.480;11.992;2023-03-21T03:27:37;8.47;;;6.50;;
1320;SDS011;653;51.480;11.992;2023-03-21T03:30:06;8.73;;;7.80;;
1320;SDS011;653;51.480;11.992;2023-03-21T03:32:34;9.10;;;7.23;;
1320;SDS011;653;51.480;11.992;2023-03-21T03:35:01;9.30;;;7.80;;
1320;SDS011;653;51.480;11.992;2023-03-21T03:37:29;10.90;;;7.23;;
1320;SDS011;653;51.480;11.992;2023-03-21T03:40:06;11.10;;;7.73;;
1320;SDS011;653;51.480;11.992;2023-03-21T03:42:34;9.37;;;6.70;;
1320;SDS011;653;51.480;11.992;2023-03-21T03:45:02;8.73;;;7.50;;
1320;SDS011;653;51.480;11.992;2023-03-21T03:47:32;10.20;;;7.43;;
1320;SDS011;653;51.480;11.992;2023-03-21T03:52:33;19.57;;;7.90;;
1320;SDS011;653;51.480;11.992;2023-03-21T03:55:01;17.83;;;8.00;;
1320;SDS011;653;51.480;11.992;2023-03-21T03:57:27;13.80;;;6.97;;
1320;SDS011;653;51.480;11.992;2023-03-21T03:59:53;8.07;;;6.17;;
1320;SDS011;653;51.480;11.992;2023-03-21T04:02:19;9.40;;;7.07;;
1320;SDS011;653;51.480;11.992;2023-03-21T04:04:45;10.80;;;6.60;;
1320;SDS011;653;51.480;11.992;2023-03-21T04:07:11;14.63;;;8.10;;
1320;SDS011;653;51.480;11.992;2023-03-21T04:09:37;10.60;;;7.07;;
1320;SDS011;653;51.480;11.992;2023-03-21T04:12:03;14.47;;;7.50;;
1320;SDS011;653;51.480;11.992;2023-03-21T04:14:29;10.60;;;7.80;;
1320;SDS011;653;51.480;11.992;2023-03-21T04:16:55;10.60;;;7.70;;
1320;SDS011;653;51.480;11.992;2023-03-21T04:19:20;8.30;;;6.40;;
1320;SDS011;653;51.480;11.992;2023-03-21T04:21:46;12.23;;;8.17;;
1320;SDS011;653;51.480;11.992;2023-03-21T04:24:12;8.60;;;6.93;;
1320;SDS011;653;51.480;11.992;2023-03-21T04:26:39;7.77;;;6.23;;
1320;SDS011;653;51.480;11.992;2023-03-21T04:29:05;10.57;;;6.70;;
1320;SDS011;653;51.480;11.992;2023-03-21T04:31:31;10.47;;;5.93;;
1320;SDS011;653;51.480;11.992;2023-03-21T04:33:59;11.10;;;6.13;;
1320;SDS011;653;51.480;11.992;2023-03-21T04:36:26;11.60;;;6.97;;
1320;SDS011;653;51.480;11.992;2023-03-21T04:38:57;9.67;;;7.37;;
1320;SDS011;653;51.480;11.992;2023-03-21T04:41:26;10.23;;;6.37;;
1320;SDS011;653;51.480;11.992;2023-03-21T04:43:52;10.80;;;6.70;;
1320;SDS011;653;51.480;11.992;2023-03-21T04:46:19;9.97;;;7.30;;
1320;SDS011;653;51.480;11.992;2023-03-21T04:48:45;9.70;;;7.70;;
1320;SDS011;653;51.480;11.992;2023-03-21T04:51:11;11.77;;;7.30;;
1320;SDS011;653;51.480;11.992;2023-03-21T04:53:37;9.83;;;7.13;;
1320;SDS011;653;51.480;11.992;2023-03-21T04:56:04;9.27;;;7.10;;
1320;SDS011;653;51.480;11.992;2023-03-21T04:58:30;12.97;;;7.53;;
1320;SDS011;653;51.480;11.992;2023-03-21T05:00:56;11.47;;;7.80;;
1320;SDS011;653;51.480;11.992;2023-03-21T05:03:22;11.33;;;8.10;;
1320;SDS011;653;51.480;11.992;2023-03-21T05:05:49;12.73;;;7.17;;
1320;SDS011;653;51.480;11.992;2023-03-21T05:08:15;13.73;;;8.10;;
1320;SDS011;653;51.480;11.992;2023-03-21T05:10:41;10.33;;;7.23;;
1320;SDS011;653;51.480;11.992;2023-03-21T05:13:06;9.90;;;8.90;;
1320;SDS011;653;51.480;11.992;2023-03-21T05:15:32;10.70;;;7.87;;
1320;SDS011;653;51.480;11.992;2023-03-21T05:17:58;9.60;;;7.60;;
1320;SDS011;653;51.480;11.992;2023-03-21T05:20:24;11.10;;;7.40;;
1320;SDS011;653;51.480;11.992;2023-03-21T05:22:50;11.20;;;7.50;;
1320;SDS011;653;51.480;11.992;2023-03-21T05:25:16;15.27;;;8.00;;
1320;SDS011;653;51.480;11.992;2023-03-21T05:27:42;14.73;;;8.17;;
1320;SDS011;653;51.480;11.992;2023-03-21T05:30:10;9.03;;;7.10;;
1320;SDS011;653;51.480;11.992;2023-03-21T05:32:38;8.67;;;7.73;;
1320;SDS011;653;51.480;11.992;2023-03-21T05:35:05;10.07;;;6.90;;
1320;SDS011;653;51.480;11.992;2023-03-21T05:37:33;11.30;;;7.57;;
1320;SDS011;653;51.480;11.992;2023-03-21T05:39:59;13.03;;;7.60;;
1320;SDS011;653;51.480;11.992;2023-03-21T05:42:26;11.27;;;8.30;;
1320;SDS011;653;51.480;11.992;2023-03-21T05:44:55;10.93;;;7.17;;
1320;SDS011;653;51.480;11.992;2023-03-21T05:47:24;10.17;;;6.50;;
1320;SDS011;653;51.480;11.992;2023-03-21T05:49:51;11.93;;;6.73;;
1320;SDS011;653;51.480;11.992;2023-03-21T05:52:18;11.60;;;7.60;;
1320;SDS011;653;51.480;11.992;2023-03-21T05:54:43;13.93;;;8.07;;
1320;SDS011;653;51.480;11.992;2023-03-21T05:57:09;13.73;;;8.13;;
1320;SDS011;653;51.480;11.992;2023-03-21T05:59:36;10.13;;;6.73;;
1320;SDS011;653;51.480;11.992;2023-03-21T06:02:03;10.47;;;6.23;;
1320;SDS011;653;51.480;11.992;2023-03-21T06:04:29;11.50;;;6.53;;
1320;SDS011;653;51.480;11.992;2023-03-21T06:06:56;13.30;;;7.77;;
1320;SDS011;653;51.480;11.992;2023-03-21T06:09:24;10.10;;;6.20;;
1320;SDS011;653;51.480;11.992;2023-03-21T06:11:52;12.60;;;7.37;;
1320;SDS011;653;51.480;11.992;2023-03-21T06:14:18;11.00;;;6.60;;
1320;SDS011;653;51.480;11.992;2023-03-21T06:16:45;8.63;;;5.90;;
1320;SDS011;653;51.480;11.992;2023-03-21T06:19:11;10.50;;;6.47;;
1320;SDS011;653;51.480;11.992;2023-03-21T06:21:37;9.63;;;5.90;;
1320;SDS011;653;51.480;11.992;2023-03-21T06:24:03;12.83;;;5.90;;
1320;SDS011;653;51.480;11.992;2023-03-21T06:26:29;8.60;;;6.80;;
1320;SDS011;653;51.480;11.992;2023-03-21T06:28:55;10.17;;;6.50;;
1320;SDS011;653;51.480;11.992;2023-03-21T06:31:22;11.07;;;6.77;;
1320;SDS011;653;51.480;11.992;2023-03-21T06:33:49;13.00;;;8.00;;
1320;SDS011;653;51.480;11.992;2023-03-21T06:36:16;13.80;;;7.60;;
1320;SDS011;653;51.480;11.992;2023-03-21T06:38:41;9.50;;;6.30;;
1320;SDS011;653;51.480;11.992;2023-03-21T06:41:07;8.80;;;6.23;;
1320;SDS011;653;51.480;11.992;2023-03-21T06:43:33;10.30;;;6.63;;
1320;SDS011;653;51.480;11.992;2023-03-21T06:45:59;8.60;;;6.30;;
1320;SDS011;653;51.480;11.992;2023-03-21T06:48:25;6.83;;;5.23;;
1320;SDS011;653;51.480;11.992;2023-03-21T06:50:52;13.13;;;6.13;;
1320;SDS011;653;51.480;11.992;2023-03-21T06:53:18;32.60;;;10.47;;
1320;SDS011;653;51.480;11.992;2023-03-21T06:55:49;30.73;;;9.63;;
1320;SDS011;653;51.480;11.992;2023-03-21T06:58:16;13.27;;;8.00;;
1320;SDS011;653;51.480;11.992;2023-03-21T07:00:41;14.17;;;6.73;;
1320;SDS011;653;51.480;11.992;2023-03-21T07:03:09;12.40;;;6.37;;
1320;SDS011;653;51.480;11.992;2023-03-21T07:05:35;11.27;;;6.60;;
1320;SDS011;653;51.480;11.992;2023-03-21T07:08:01;10.97;;;5.80;;
1320;SDS011;653;51.480;11.992;2023-03-21T07:10:28;8.57;;;6.90;;
1320;SDS011;653;51.480;11.992;2023-03-21T07:12:54;7.57;;;5.90;;
1320;SDS011;653;51.480;11.992;2023-03-21T07:15:20;7.20;;;5.90;;
1320;SDS011;653;51.480;11.992;2023-03-21T07:17:46;9.90;;;6.37;;
1320;SDS011;653;51.480;11.992;2023-03-21T07:20:12;9.17;;;5.57;;
1320;SDS011;653;51.480;11.992;2023-03-21T07:22:38;8.10;;;6.07;;
1320;SDS011;653;51.480;11.992;2023-03-21T07:25:04;8.60;;;5.30;;
1320;SDS011;653;51.480;11.992;2023-03-21T07:27:32;9.37;;;5.43;;
1320;SDS011;653;51.480;11.992;2023-03-21T07:29:57;8.80;;;5.80;;
1320;SDS011;653;51.480;11.992;2023-03-21T07:32:23;8.23;;;4.33;;
1320;SDS011;653;51.480;11.992;2023-03-21T07:34:49;11.60;;;5.80;;
1320;SDS011;653;51.480;11.992;2023-03-21T07:37:14;10.13;;;5.70;;
1320;SDS011;653;51.480;11.992;2023-03-21T07:39:40;9.50;;;5.50;;
1320;SDS011;653;51.480;11.992;2023-03-21T07:42:07;8.57;;;5.00;;
1320;SDS011;653;51.480;11.992;2023-03-21T07:44:32;12.43;;;6.60;;
1320;SDS011;653;51.480;11.992;2023-03-21T07:46:58;9.70;;;5.67;;
1320;SDS011;653;51.480;11.992;2023-03-21T07:49:23;13.00;;;5.83;;
1320;SDS011;653;51.480;11.992;2023-03-21T07:51:51;9.03;;;4.90;;
1320;SDS011;653;51.480;11.992;2023-03-21T07:54:17;9.60;;;5.57;;
1320;SDS011;653;51.480;11.992;2023-03-21T07:56:45;13.43;;;5.40;;
1320;SDS011;653;51.480;11.992;2023-03-21T07:59:11;12.53;;;5.63;;
1320;SDS011;653;51.480;11.992;2023-03-21T08:01:36;15.60;;;6.10;;
1320;SDS011;653;51.480;11.992;2023-03-21T08:04:02;14.60;;;6.40;;
1320;SDS011;653;51.480;11.992;2023-03-21T08:06:27;10.03;;;5.20;;
1320;SDS011;653;51.480;11.992;2023-03-21T08:08:53;9.80;;;5.60;;
1320;SDS011;653;51.480;11.992;2023-03-21T08:11:19;7.63;;;5.60;;
1320;SDS011;653;51.480;11.992;2023-03-21T08:13:46;11.03;;;5.57;;
1320;SDS011;653;51.480;11.992;2023-03-21T08:16:11;9.43;;;5.30;;
1320;SDS011;653;51.480;11.992;2023-03-21T08:18:37;12.63;;;5.20;;
1320;SDS011;653;51.480;11.992;2023-03-21T08:21:02;10.70;;;5.20;;
1320;SDS011;653;51.480;11.992;2023-03-21T08:23:28;11.87;;;5.70;;
1320;SDS011;653;51.480;11.992;2023-03-21T08:25:54;9.73;;;6.23;;
1320;SDS011;653;51.480;11.992;2023-03-21T08:28:20;8.47;;;5.93;;
1320;SDS011;653;51.480;11.992;2023-03-21T08:30:46;8.30;;;5.03;;
1320;SDS011;653;51.480;11.992;2023-03-21T08:33:12;11.20;;;6.10;;
1320;SDS011;653;51.480;11.992;2023-03-21T08:35:38;9.33;;;5.60;;
1320;SDS011;653;51.480;11.992;2023-03-21T08:38:04;11.87;;;6.10;;
1320;SDS011;653;51.480;11.992;2023-03-21T08:40:31;11.37;;;5.57;;
1320;SDS011;653;51.480;11.992;2023-03-21T08:42:57;9.10;;;5.23;;
1320;SDS011;653;51.480;11.992;2023-03-21T08:45:23;9.13;;;6.33;;
1320;SDS011;653;51.480;11.992;2023-03-21T08:47:49;14.40;;;5.27;;
1320;SDS011;653;51.480;11.992;2023-03-21T08:50:19;11.93;;;6.13;;
1320;SDS011;653;51.480;11.992;2023-03-21T08:52:46;10.50;;;5.57;;
1320;SDS011;653;51.480;11.992;2023-03-21T08:55:13;13.77;;;5.43;;
1320;SDS011;653;51.480;11.992;2023-03-21T08:57:40;13.20;;;5.40;;
1320;SDS011;653;51.480;11.992;2023-03-21T09:00:06;8.93;;;5.50;;
1320;SDS011;653;51.480;11.992;2023-03-21T09:02:37;7.40;;;5.70;;
1320;SDS011;653;51.480;11.992;2023-03-21T09:05:03;6.77;;;4.63;;
1320;SDS011;653;51.480;11.992;2023-03-21T09:07:30;13.67;;;6.57;;
1320;SDS011;653;51.480;11.992;2023-03-21T09:09:58;12.93;;;4.73;;
1320;SDS011;653;51.480;11.992;2023-03-21T09:12:24;6.20;;;4.40;;
1320;SDS011;653;51.480;11.992;2023-03-21T09:14:50;6.47;;;5.13;;
1320;SDS011;653;51.480;11.992;2023-03-21T09:17:19;9.23;;;5.60;;
1320;SDS011;653;51.480;11.992;2023-03-21T09:19:45;8.80;;;4.93;;
1320;SDS011;653;51.480;11.992;2023-03-21T09:22:11;10.20;;;5.00;;
1320;SDS011;653;51.480;11.992;2023-03-21T09:24:39;6.97;;;4.43;;
1320;SDS011;653;51.480;11.992;2023-03-21T09:27:06;6.77;;;5.50;;
1320;SDS011;653;51.480;11.992;2023-03-21T09:29:32;8.60;;;4.83;;
1320;SDS011;653;51.480;11.992;2023-03-21T09:31:58;7.40;;;5.00;;
1320;SDS011;653;51.480;11.992;2023-03-21T09:34:24;8.03;;;5.87;;
1320;SDS011;653;51.480;11.992;2023-03-21T09:36:50;10.13;;;5.13;;
1320;SDS011;653;51.480;11.992;2023-03-21T09:39:20;9.23;;;5.10;;
1320;SDS011;653;51.480;11.992;2023-03-21T09:41:50;6.67;;;5.50;;
1320;SDS011;653;51.480;11.992;2023-03-21T09:47:17;14.53;;;7.83;;
1320;SDS011;653;51.480;11.992;2023-03-21T09:49:53;8.17;;;5.40;;
1320;SDS011;653;51.480;11.992;2023-03-21T09:52:26;12.87;;;5.80;;
1320;SDS011;653;51.480;11.992;2023-03-21T09:54:56;9.17;;;5.87;;
1320;SDS011;653;51.480;11.992;2023-03-21T09:57:41;10.63;;;6.33;;
1320;SDS011;653;51.480;11.992;2023-03-21T10:00:16;10.57;;;6.00;;
1320;SDS011;653;51.480;11.992;2023-03-21T10:02:50;13.83;;;6.90;;
1320;SDS011;653;51.480;11.992;2023-03-21T10:11:03;7.97;;;5.50;;
1320;SDS011;653;51.480;11.992;2023-03-21T10:13:32;7.83;;;6.13;;
1320;SDS011;653;51.480;11.992;2023-03-21T10:16:01;7.20;;;5.80;;
1320;SDS011;653;51.480;11.992;2023-03-21T10:18:41;8.70;;;5.90;;
1320;SDS011;653;51.480;11.992;2023-03-21T10:21:10;9.30;;;7.33;;
1320;SDS011;653;51.480;11.992;2023-03-21T10:23:40;8.07;;;5.73;;
1320;SDS011;653;51.480;11.992;2023-03-21T10:26:06;9.77;;;6.60;;
1320;SDS011;653;51.480;11.992;2023-03-21T10:28:34;11.37;;;6.50;;
1320;SDS011;653;51.480;11.992;2023-03-21T10:31:02;13.73;;;7.80;;
1320;SDS011;653;51.480;11.992;2023-03-21T10:33:34;9.43;;;6.80;;
1320;SDS011;653;51.480;11.992;2023-03-21T10:36:04;7.70;;;6.10;;
1320;SDS011;653;51.480;11.992;2023-03-21T10:38:31;9.17;;;6.47;;
1320;SDS011;653;51.480;11.992;2023-03-21T10:40:57;8.17;;;5.90;;
1320;SDS011;653;51.480;11.992;2023-03-21T10:45:51;9.53;;;7.00;;
1320;SDS011;653;51.480;11.992;2023-03-21T10:48:17;9.77;;;6.47;;
1320;SDS011;653;51.480;11.992;2023-03-21T10:50:45;8.60;;;5.80;;
1320;SDS011;653;51.480;11.992;2023-03-21T10:53:17;9.70;;;6.43;;
1320;SDS011;653;51.480;11.992;2023-03-21T10:55:46;8.63;;;5.83;;
1320;SDS011;653;51.480;11.992;2023-03-21T10:58:18;8.33;;;6.80;;
1320;SDS011;653;51.480;11.992;2023-03-21T11:01:00;8.40;;;6.27;;
1320;SDS011;653;51.480;11.992;2023-03-21T11:03:38;9.87;;;6.67;;
1320;SDS011;653;51.480;11.992;2023-03-21T11:06:28;9.77;;;5.87;;
1320;SDS011;653;51.480;11.992;2023-03-21T11:08:59;8.17;;;6.40;;
1320;SDS011;653;51.480;11.992;2023-03-21T11:12:08;13.43;;;7.07;;
1320;SDS011;653;51.480;11.992;2023-03-21T11:14:41;10.67;;;7.30;;
1320;SDS011;653;51.480;11.992;2023-03-21T11:17:23;11.67;;;7.40;;
1320;SDS011;653;51.480;11.992;2023-03-21T11:19:56;10.80;;;7.43;;
1320;SDS011;653;51.480;11.992;2023-03-21T11:22:25;7.63;;;6.50;;
1320;SDS011;653;51.480;11.992;2023-03-21T11:24:58;10.10;;;6.90;;
1320;SDS011;653;51.480;11.992;2023-03-21T11:27:30;9.43;;;7.00;;
1320;SDS011;653;51.480;11.992;2023-03-21T11:29:57;9.90;;;7.30;;
1320;SDS011;653;51.480;11.992;2023-03-21T11:32:34;10.90;;;7.20;;
1320;SDS011;653;51.480;11.992;2023-03-21T11:35:19;9.97;;;7.13;;
1320;SDS011;653;51.480;11.992;2023-03-21T11:37:51;8.47;;;7.13;;
1320;SDS011;653;51.480;11.992;2023-03-21T11:40:31;9.10;;;6.70;;
1320;SDS011;653;51.480;11.992;2023-03-21T11:45:28;10.87;;;7.53;;
1320;SDS011;653;51.480;11.992;2023-03-21T11:47:55;9.33;;;7.60;;
1320;SDS011;653;51.480;11.992;2023-03-21T11:52:58;9.30;;;7.17;;
1320;SDS011;653;51.480;11.992;2023-03-21T11:58:24;10.40;;;7.43;;
1320;SDS011;653;51.480;11.992;2023-03-21T12:06:23;8.80;;;7.03;;
1320;SDS011;653;51.480;11.992;2023-03-21T12:11:28;8.30;;;6.60;;
1320;SDS011;653;51.480;11.992;2023-03-21T12:16:47;8.90;;;6.13;;
1320;SDS011;653;51.480;11.992;2023-03-21T12:19:37;8.03;;;6.50;;
1320;SDS011;653;51.480;11.992;2023-03-21T12:30:21;8.00;;;7.20;;
1320;SDS011;653;51.480;11.992;2023-03-21T12:35:55;9.00;;;6.33;;
1320;SDS011;653;51.480;11.992;2023-03-21T12:38:27;10.23;;;6.90;;
1320;SDS011;653;51.480;11.992;2023-03-21T12:41:10;11.30;;;6.73;;
1320;SDS011;653;51.480;11.992;2023-03-21T12:43:43;8.70;;;7.10;;
1320;SDS011;653;51.480;11.992;2023-03-21T12:48:47;10.00;;;6.40;;
1320;SDS011;653;51.480;11.992;2023-03-21T12:51:17;9.30;;;7.03;;
1320;SDS011;653;51.480;11.992;2023-03-21T12:53:52;11.37;;;6.90;;
1320;SDS011;653;51.480;11.992;2023-03-21T12:56:28;8.97;;;6.60;;
1320;SDS011;653;51.480;11.992;2023-03-21T12:59:17;8.23;;;6.30;;
1320;SDS011;653;51.480;11.992;2023-03-21T13:02:09;9.77;;;7.63;;
1320;SDS011;653;51.480;11.992;2023-03-21T13:05:29;8.03;;;5.80;;
1320;SDS011;653;51.480;11.992;2023-03-21T13:07:31;9.23;;;6.87;;
1320;SDS011;653;51.480;11.992;2023-03-21T13:09:58;8.00;;;7.17;;
1320;SDS011;653;51.480;11.992;2023-03-21T13:12:35;10.13;;;6.30;;
1320;SDS011;653;51.480;11.992;2023-03-21T13:18:01;8.03;;;6.13;;
1320;SDS011;653;51.480;11.992;2023-03-21T13:23:09;8.93;;;7.23;;
1320;SDS011;653;51.480;11.992;2023-03-21T13:25:46;13.20;;;7.20;;
1320;SDS011;653;51.480;11.992;2023-03-21T13:30:47;8.80;;;6.50;;
1320;SDS011;653;51.480;11.992;2023-03-21T13:33:19;7.70;;;5.87;;
1320;SDS011;653;51.480;11.992;2023-03-21T13:35:58;11.07;;;6.20;;
1320;SDS011;653;51.480;11.992;2023-03-21T13:38:29;9.03;;;7.03;;
1320;SDS011;653;51.480;11.992;2023-03-21T13:41:01;7.70;;;6.13;;
1320;SDS011;653;51.480;11.992;2023-03-21T13:46:05;7.50;;;6.20;;
1320;SDS011;653;51.480;11.992;2023-03-21T13:48:43;8.60;;;6.60;;
1320;SDS011;653;51.480;11.992;2023-03-21T13:51:09;7.43;;;5.10;;
1320;SDS011;653;51.480;11.992;2023-03-21T13:53:36;9.00;;;5.67;;
1320;SDS011;653;51.480;11.992;2023-03-21T13:58:37;6.40;;;5.60;;
1320;SDS011;653;51.480;11.992;2023-03-21T14:01:10;9.70;;;5.63;;
1320;SDS011;653;51.480;11.992;2023-03-21T14:03:55;7.17;;;6.00;;
1320;SDS011;653;51.480;11.992;2023-03-21T14:06:30;9.60;;;6.70;;
1320;SDS011;653;51.480;11.992;2023-03-21T14:08:58;8.53;;;5.80;;
1320;SDS011;653;51.480;11.992;2023-03-21T14:11:24;8.33;;;7.23;;
1320;SDS011;653;51.480;11.992;2023-03-21T14:13:50;8.60;;;6.77;;
1320;SDS011;653;51.480;11.992;2023-03-21T14:16:18;8.60;;;6.60;;
1320;SDS011;653;51.480;11.992;2023-03-21T14:18:47;7.97;;;6.27;;
1320;SDS011;653;51.480;11.992;2023-03-21T14:21:18;7.37;;;6.67;;
1320;SDS011;653;51.480;11.992;2023-03-21T14:23:45;8.63;;;6.30;;
1320;SDS011;653;51.480;11.992;2023-03-21T14:26:11;10.57;;;6.10;;
1320;SDS011;653;51.480;11.992;2023-03-21T14:28:38;9.13;;;6.53;;
1320;SDS011;653;51.480;11.992;2023-03-21T14:31:13;7.70;;;6.33;;
1320;SDS011;653;51.480;11.992;2023-03-21T14:33:40;7.00;;;5.63;;
1320;SDS011;653;51.480;11.992;2023-03-21T14:36:18;9.50;;;6.73;;
1320;SDS011;653;51.480;11.992;2023-03-21T14:39:05;7.77;;;6.50;;
1320;SDS011;653;51.480;11.992;2023-03-21T14:41:45;10.47;;;7.23;;
1320;SDS011;653;51.480;11.992;2023-03-21T14:47:03;9.00;;;6.00;;
1320;SDS011;653;51.480;11.992;2023-03-21T14:49:32;6.20;;;5.53;;
1320;SDS011;653;51.480;11.992;2023-03-21T14:52:03;7.73;;;5.60;;
1320;SDS011;653;51.480;11.992;2023-03-21T14:54:31;7.10;;;5.50;;
1320;SDS011;653;51.480;11.992;2023-03-21T14:57:01;6.73;;;5.80;;
1320;SDS011;653;51.480;11.992;2023-03-21T14:59:29;8.57;;;5.00;;
1320;SDS011;653;51.480;11.992;2023-03-21T15:01:57;7.90;;;5.97;;
1320;SDS011;653;51.480;11.992;2023-03-21T15:04:24;7.43;;;5.97;;
1320;SDS011;653;51.480;11.992;2023-03-21T15:06:59;6.47;;;5.77;;
1320;SDS011;653;51.480;11.992;2023-03-21T15:09:32;7.70;;;5.70;;
1320;SDS011;653;51.480;11.992;2023-03-21T15:12:00;9.20;;;6.43;;
1320;SDS011;653;51.480;11.992;2023-03-21T15:14:27;8.43;;;5.77;;
1320;SDS011;653;51.480;11.992;2023-03-21T15:16:58;6.03;;;5.37;;
1320;SDS011;653;51.480;11.992;2023-03-21T15:19:28;6.63;;;5.67;;
1320;SDS011;653;51.480;11.992;2023-03-21T15:21:59;11.30;;;6.00;;
1320;SDS011;653;51.480;11.992;2023-03-21T15:24:51;6.43;;;5.77;;
1320;SDS011;653;51.480;11.992;2023-03-21T15:27:19;10.07;;;6.73;;
1320;SDS011;653;51.480;11.992;2023-03-21T15:29:47;7.93;;;6.40;;
1320;SDS011;653;51.480;11.992;2023-03-21T15:32:16;9.50;;;5.63;;
1320;SDS011;653;51.480;11.992;2023-03-21T15:34:45;6.73;;;6.00;;
1320;SDS011;653;51.480;11.992;2023-03-21T15:37:15;8.13;;;6.30;;
1320;SDS011;653;51.480;11.992;2023-03-21T15:39:54;11.03;;;6.10;;
1320;SDS011;653;51.480;11.992;2023-03-21T15:42:38;9.10;;;6.40;;
1320;SDS011;653;51.480;11.992;2023-03-21T15:45:19;6.13;;;5.53;;
1320;SDS011;653;51.480;11.992;2023-03-21T15:47:51;9.57;;;6.40;;
1320;SDS011;653;51.480;11.992;2023-03-21T15:50:24;6.20;;;5.53;;
1320;SDS011;653;51.480;11.992;2023-03-21T15:53:17;10.17;;;5.93;;
1320;SDS011;653;51.480;11.992;2023-03-21T15:55:47;14.13;;;6.60;;
1320;SDS011;653;51.480;11.992;2023-03-21T16:01:15;6.93;;;5.73;;
1320;SDS011;653;51.480;11.992;2023-03-21T16:03:45;6.10;;;5.13;;
1320;SDS011;653;51.480;11.992;2023-03-21T16:06:17;10.40;;;6.57;;
1320;SDS011;653;51.480;11.992;2023-03-21T16:08:48;8.00;;;5.93;;
1320;SDS011;653;51.480;11.992;2023-03-21T16:13:48;10.33;;;6.23;;
1320;SDS011;653;51.480;11.992;2023-03-21T16:16:22;8.90;;;6.63;;
1320;SDS011;653;51.480;11.992;2023-03-21T16:18:50;10.63;;;6.30;;
1320;SDS011;653;51.480;11.992;2023-03-21T16:21:18;9.10;;;6.53;;
1320;SDS011;653;51.480;11.992;2023-03-21T16:23:47;6.67;;;5.87;;
1320;SDS011;653;51.480;11.992;2023-03-21T16:26:15;8.03;;;6.90;;
1320;SDS011;653;51.480;11.992;2023-03-21T16:28:42;8.33;;;6.43;;
1320;SDS011;653;51.480;11.992;2023-03-21T16:31:12;7.90;;;6.50;;
1320;SDS011;653;51.480;11.992;2023-03-21T16:33:40;10.17;;;6.67;;
1320;SDS011;653;51.480;11.992;2023-03-21T16:36:10;9.47;;;6.30;;
1320;SDS011;653;51.480;11.992;2023-03-21T16:38:38;7.13;;;5.70;;
1320;SDS011;653;51.480;11.992;2023-03-21T16:41:08;9.67;;;6.13;;
1320;SDS011;653;51.480;11.992;2023-03-21T16:43:36;10.00;;;7.27;;
1320;SDS011;653;51.480;11.992;2023-03-21T16:46:20;10.23;;;6.40;;
1320;SDS011;653;51.480;11.992;2023-03-21T16:48:55;9.33;;;6.07;;
1320;SDS011;653;51.480;11.992;2023-03-21T16:51:24;7.83;;;5.80;;
1320;SDS011;653;51.480;11.992;2023-03-21T16:53:55;8.33;;;5.73;;
1320;SDS011;653;51.480;11.992;2023-03-21T16:56:23;5.37;;;4.23;;